Time;durP1;ratioP1;P1;durP2;ratioP2;P2;SDS_P1;SDS_P2;PMS_P1;PMS_P2;Temp;Humidity;BMP_temperature;BMP_pressure;BME280_temperature;BME280_humidity;BME280_pressure;Samples;Min_cycle;Max_cycle;Signal;HPM_P1;HPM_P2
2022/08/29 00:01:07;;;;;;;4.53;1.15;;;17.00;99.90;;;;;;4193979;28;20183;-87
2022/08/29 00:03:08;;;;;;;4.32;1.30;;;16.90;99.90;;;;;;4193189;28;20159;-88
2022/08/29 00:05:09;;;;;;;6.05;1.58;;;16.90;99.90;;;;;;4191972;28;20179;-88
2022/08/29 00:07:10;;;;;;;4.97;1.52;;;16.80;99.90;;;;;;4193126;28;20243;-89
2022/08/29 00:09:10;;;;;;;5.38;1.48;;;16.80;99.90;;;;;;4192486;28;20175;-89
2022/08/29 00:11:12;;;;;;;5.38;1.35;;;16.70;99.90;;;;;;4209014;28;20162;-90
2022/08/29 00:13:13;;;;;;;4.18;1.58;;;16.70;99.90;;;;;;4190509;28;20163;-88
2022/08/29 00:15:22;;;;;;;3.72;1.40;;;16.70;99.90;;;;;;4191000;28;20206;-88
2022/08/29 00:17:23;;;;;;;3.33;1.10;;;16.70;99.90;;;;;;4189240;28;20235;-88
2022/08/29 00:19:23;;;;;;;1.85;1.10;;;16.70;99.90;;;;;;4207004;28;20194;-87
2022/08/29 00:21:24;;;;;;;4.63;1.33;;;16.80;99.90;;;;;;4189742;28;20175;-88
2022/08/29 00:23:25;;;;;;;4.82;1.60;;;16.90;99.90;;;;;;4189006;28;20207;-88
2022/08/29 00:25:26;;;;;;;5.63;1.45;;;16.90;99.90;;;;;;4189066;28;20185;-87
2022/08/29 00:27:27;;;;;;;4.18;1.50;;;16.80;99.90;;;;;;4188490;28;20215;-89
2022/08/29 00:29:28;;;;;;;6.80;1.67;;;16.90;99.90;;;;;;4189372;28;20634;-89
2022/08/29 00:31:28;;;;;;;4.90;1.50;;;16.90;99.90;;;;;;4194753;28;20156;-88
2022/08/29 00:33:29;;;;;;;6.65;1.33;;;16.90;99.90;;;;;;4208356;28;20174;-88
2022/08/29 00:35:34;;;;;;;5.40;1.40;;;17.00;99.90;;;;;;4190022;28;20183;-88
2022/08/29 00:37:40;;;;;;;6.00;1.50;;;16.90;99.90;;;;;;4207213;28;20150;-89
2022/08/29 00:39:40;;;;;;;5.78;1.60;;;16.80;99.90;;;;;;4189291;28;20199;-89
2022/08/29 00:41:41;;;;;;;5.68;1.55;;;16.80;99.90;;;;;;4205908;28;20258;-89
2022/08/29 00:43:42;;;;;;;5.85;1.67;;;16.70;99.90;;;;;;4206349;28;20241;-89
2022/08/29 00:46:07;;;;;;;4.93;1.63;;;16.60;99.90;;;;;;4191958;28;20159;-88
2022/08/29 00:48:14;;;;;;;6.43;1.77;;;16.60;99.90;;;;;;4205344;28;20547;-88
2022/08/29 00:50:30;;;;;;;2.92;1.40;;;16.60;99.90;;;;;;4206271;28;20256;-88
2022/08/29 00:52:38;;;;;;;3.05;1.58;;;16.50;99.90;;;;;;4191051;28;20167;-88
2022/08/29 00:54:41;;;;;;;6.90;1.77;;;16.40;99.90;;;;;;4191328;28;20159;-88
2022/08/29 00:56:44;;;;;;;3.63;1.70;;;16.30;99.90;;;;;;4207988;28;20197;-88
2022/08/29 00:58:52;;;;;;;6.15;1.70;;;16.20;99.90;;;;;;4194340;28;20210;-91
2022/08/29 01:00:53;;;;;;;8.90;2.20;;;16.10;99.90;;;;;;4192527;28;20155;-88
2022/08/29 01:02:54;;;;;;;5.65;1.40;;;16.00;99.90;;;;;;4210856;28;20179;-88
2022/08/29 01:04:55;;;;;;;9.98;2.10;;;16.00;99.90;;;;;;4188557;28;20174;-89
2022/08/29 01:06:56;;;;;;;4.05;1.60;;;16.10;99.90;;;;;;4209281;28;20218;-87
2022/08/29 01:08:57;;;;;;;7.22;1.98;;;16.10;99.90;;;;;;4190962;28;20184;-88
2022/08/29 01:13:22;;;;;;;7.78;2.00;;;16.00;99.90;;;;;;4208781;28;20162;-92
2022/08/29 01:15:23;;;;;;;7.50;2.42;;;16.00;99.90;;;;;;4191508;28;20670;-88
2022/08/29 01:17:51;;;;;;;12.00;2.00;;;15.90;99.90;;;;;;4194460;28;20186;-89
2022/08/29 01:20:01;;;;;;;6.00;1.70;;;16.00;99.90;;;;;;4197211;28;20195;-89
2022/08/29 01:22:15;;;;;;;4.95;1.70;;;16.00;99.90;;;;;;4192286;28;20213;-88
2022/08/29 01:24:51;;;;;;;6.93;2.10;;;16.20;99.90;;;;;;4192130;28;20206;-89
2022/08/29 01:26:52;;;;;;;7.15;2.30;;;16.30;99.90;;;;;;4212087;28;20214;-88
2022/08/29 01:28:58;;;;;;;8.15;1.73;;;16.20;99.90;;;;;;4196344;28;20174;-95
2022/08/29 01:31:06;;;;;;;9.80;2.22;;;16.20;99.90;;;;;;4193956;28;20231;-88
2022/08/29 01:33:06;;;;;;;4.55;1.90;;;16.10;99.90;;;;;;4192599;28;20258;-88
2022/08/29 01:35:08;;;;;;;7.63;2.05;;;16.10;99.90;;;;;;4211362;28;20167;-88
2022/08/29 01:37:19;;;;;;;7.32;1.80;;;16.00;99.90;;;;;;4196326;28;20190;-89
2022/08/29 01:39:23;;;;;;;3.00;1.80;;;16.00;99.90;;;;;;4195078;28;20241;-89
2022/08/29 01:41:24;;;;;;;6.35;2.00;;;16.00;99.90;;;;;;4193935;28;20531;-88
2022/08/29 01:43:44;;;;;;;3.88;2.10;;;16.00;99.90;;;;;;4194019;28;20211;-94
2022/08/29 01:45:45;;;;;;;5.75;2.15;;;15.90;99.90;;;;;;4191176;28;20209;-89
2022/08/29 01:47:46;;;;;;;4.65;1.98;;;15.80;99.90;;;;;;4193272;28;20254;-90
2022/08/29 01:49:50;;;;;;;7.97;2.28;;;15.80;99.90;;;;;;4191397;28;20184;-89
2022/08/29 01:51:51;;;;;;;7.47;2.17;;;15.80;99.90;;;;;;4194169;28;20183;-88
2022/08/29 01:53:52;;;;;;;4.55;2.00;;;15.70;99.90;;;;;;4207974;28;20162;-89
2022/08/29 01:55:53;;;;;;;6.60;2.40;;;15.80;99.90;;;;;;4192662;28;20187;-88
2022/08/29 01:57:53;;;;;;;5.82;2.13;;;15.70;99.90;;;;;;4208402;28;20170;-89
2022/08/29 01:59:56;;;;;;;5.65;2.30;;;15.70;99.90;;;;;;4191152;28;20234;-89
2022/08/29 02:02:01;;;;;;;5.90;2.10;;;15.70;99.90;;;;;;4191822;28;20162;-88
2022/08/29 02:04:04;;;;;;;6.32;2.03;;;15.70;99.90;;;;;;4208860;28;20186;-88
2022/08/29 02:06:08;;;;;;;6.45;2.20;;;15.60;99.90;;;;;;4207028;28;20159;-87
2022/08/29 02:08:09;;;;;;;7.80;2.67;;;15.60;99.90;;;;;;4193693;28;20223;-88
2022/08/29 02:10:10;;;;;;;6.68;2.58;;;15.50;99.90;;;;;;4191674;22;20223;-89
2022/08/29 02:12:11;;;;;;;9.18;2.83;;;15.50;99.90;;;;;;4176291;28;20191;-90
2022/08/29 02:14:12;;;;;;;6.20;2.25;;;15.40;99.90;;;;;;4170185;28;20180;-88
2022/08/29 02:16:13;;;;;;;4.97;2.40;;;15.40;99.90;;;;;;4170533;28;20175;-89
2022/08/29 02:18:14;;;;;;;5.68;2.13;;;15.30;99.90;;;;;;4157631;28;20161;-87
2022/08/29 02:20:15;;;;;;;4.80;2.50;;;15.20;99.90;;;;;;4190575;28;20203;-92
2022/08/29 02:22:15;;;;;;;5.43;2.30;;;15.20;99.90;;;;;;4161623;28;20169;-89
2022/08/29 02:24:16;;;;;;;9.43;2.67;;;15.10;99.90;;;;;;4173608;28;20194;-88
2022/08/29 02:26:19;;;;;;;6.18;2.97;;;15.20;99.90;;;;;;4174485;28;20160;-95
2022/08/29 02:28:21;;;;;;;6.40;2.60;;;15.30;99.90;;;;;;4172165;28;20191;-89
2022/08/29 02:30:22;;;;;;;9.23;2.88;;;15.20;99.90;;;;;;4154773;28;20185;-88
2022/08/29 02:32:22;;;;;;;6.13;2.75;;;15.20;99.90;;;;;;4157942;28;20272;-95
2022/08/29 02:34:23;;;;;;;7.93;2.60;;;15.20;99.90;;;;;;4157054;28;20169;-89
2022/08/29 02:36:25;;;;;;;9.45;2.83;;;15.10;99.90;;;;;;4158035;28;20192;-90
2022/08/29 02:38:40;;;;;;;5.93;2.88;;;15.10;99.90;;;;;;4173290;28;20160;-91
2022/08/29 02:40:42;;;;;;;6.78;2.78;;;15.10;99.90;;;;;;4174687;28;20636;-89
2022/08/29 02:42:43;;;;;;;5.32;2.92;;;15.10;99.90;;;;;;4175719;28;20171;-91
2022/08/29 02:44:44;;;;;;;7.20;2.42;;;15.10;99.90;;;;;;4154101;28;20185;-89
2022/08/29 02:46:44;;;;;;;6.45;2.88;;;15.10;99.90;;;;;;4174493;28;20192;-87
2022/08/29 02:48:46;;;;;;;6.03;2.65;;;15.20;99.90;;;;;;4160836;28;20180;-88
2022/08/29 02:50:53;;;;;;;12.88;3.15;;;15.10;99.90;;;;;;4172466;28;20172;-89
2022/08/29 02:52:53;;;;;;;7.95;2.85;;;15.10;99.90;;;;;;4172901;28;20180;-89
2022/08/29 02:54:54;;;;;;;6.63;3.05;;;15.00;99.90;;;;;;4156607;28;20183;-89
2022/08/29 02:56:55;;;;;;;4.97;2.85;;;15.00;99.90;;;;;;4176030;28;20168;-95
2022/08/29 02:58:56;;;;;;;5.80;2.53;;;14.90;99.90;;;;;;4181962;22;20155;-89
2022/08/29 03:00:57;;;;;;;6.13;2.50;;;14.90;99.90;;;;;;4171708;28;20170;-91
2022/08/29 03:02:59;;;;;;;7.60;2.65;;;14.90;99.90;;;;;;4188498;28;20159;-88
2022/08/29 03:05:00;;;;;;;5.35;2.58;;;14.90;99.90;;;;;;4173774;28;20172;-87
2022/08/29 03:07:00;;;;;;;8.38;2.97;;;15.00;99.90;;;;;;4188635;28;20229;-88
2022/08/29 03:09:05;;;;;;;8.20;2.40;;;15.00;99.90;;;;;;4189970;28;20188;-88
2022/08/29 03:11:06;;;;;;;5.82;2.47;;;14.90;99.90;;;;;;4194202;28;20208;-88
2022/08/29 03:13:07;;;;;;;9.73;2.83;;;14.90;99.90;;;;;;4192653;28;20172;-89
2022/08/29 03:15:08;;;;;;;7.85;3.13;;;14.90;99.90;;;;;;4175986;28;20184;-88
2022/08/29 03:17:09;;;;;;;7.22;2.97;;;14.90;99.90;;;;;;4176472;28;20183;-88
2022/08/29 03:19:10;;;;;;;10.18;3.08;;;14.90;99.90;;;;;;4194548;28;20200;-88
2022/08/29 03:21:16;;;;;;;10.20;3.13;;;14.90;99.90;;;;;;4176421;28;20264;-88
2022/08/29 03:23:16;;;;;;;8.38;2.80;;;14.90;99.90;;;;;;4191728;28;20171;-88
2022/08/29 03:25:18;;;;;;;8.13;3.13;;;14.90;99.90;;;;;;4191738;28;20675;-88
2022/08/29 03:27:19;;;;;;;7.47;3.00;;;14.90;99.90;;;;;;4177574;28;20216;-88
2022/08/29 03:29:36;;;;;;;6.03;2.80;;;14.80;99.90;;;;;;4195622;28;20222;-90
2022/08/29 03:31:37;;;;;;;6.70;2.90;;;14.80;99.90;;;;;;4191466;28;20213;-88
2022/08/29 03:33:53;;;;;;;5.25;2.63;;;14.80;99.90;;;;;;4206378;28;20151;-89
2022/08/29 03:35:54;;;;;;;9.18;2.90;;;14.80;99.90;;;;;;4194108;28;20187;-95
2022/08/29 03:37:54;;;;;;;8.90;3.10;;;14.80;99.90;;;;;;4190441;28;20147;-89
2022/08/29 03:39:55;;;;;;;12.38;2.72;;;14.80;99.90;;;;;;4174719;28;20176;-88
2022/08/29 03:41:56;;;;;;;9.98;3.10;;;14.80;99.90;;;;;;4208744;28;20174;-88
2022/08/29 03:44:00;;;;;;;9.30;2.72;;;14.80;99.90;;;;;;4174790;28;20545;-89
2022/08/29 03:46:01;;;;;;;8.02;2.83;;;14.80;99.90;;;;;;4176425;28;20163;-88
2022/08/29 03:48:02;;;;;;;12.85;3.00;;;14.90;99.90;;;;;;4189743;28;20207;-89
2022/08/29 03:50:03;;;;;;;6.82;3.00;;;14.90;99.90;;;;;;4175340;28;20200;-89
2022/08/29 03:52:05;;;;;;;7.10;2.70;;;14.90;99.90;;;;;;4176501;28;20257;-88
2022/08/29 03:54:05;;;;;;;6.45;2.53;;;14.90;99.90;;;;;;4178664;28;20164;-88
2022/08/29 03:56:07;;;;;;;6.43;2.65;;;14.80;99.90;;;;;;4193484;28;20175;-88
2022/08/29 03:58:08;;;;;;;13.10;3.33;;;14.80;99.90;;;;;;4174185;28;20244;-89
2022/08/29 04:00:15;;;;;;;7.43;3.20;;;14.80;99.90;;;;;;4190470;28;20702;-88
2022/08/29 04:02:17;;;;;;;6.43;2.67;;;14.80;99.90;;;;;;4194212;28;20189;-89
2022/08/29 04:06:42;;;;;;;8.88;3.03;;;14.90;99.90;;;;;;4193130;28;20269;-89
2022/08/29 04:09:01;;;;;;;7.65;2.50;;;14.90;99.90;;;;;;4193204;28;20179;-88
2022/08/29 04:11:09;;;;;;;7.60;2.42;;;14.90;99.90;;;;;;4179800;28;20200;-89
2022/08/29 04:13:09;;;;;;;8.80;2.60;;;15.00;99.90;;;;;;4178617;28;20172;-88
2022/08/29 04:15:15;;;;;;;7.28;2.30;;;15.00;99.90;;;;;;4195419;28;20158;-90
2022/08/29 04:17:16;;;;;;;8.32;2.60;;;15.10;99.90;;;;;;4193565;28;20163;-88
2022/08/29 04:19:18;;;;;;;8.93;2.65;;;15.20;99.90;;;;;;4192190;28;20280;-89
2022/08/29 04:21:19;;;;;;;5.60;2.45;;;15.20;99.90;;;;;;4193527;28;20186;-89
2022/08/29 04:23:20;;;;;;;6.68;2.60;;;15.20;99.90;;;;;;4194246;28;20187;-88
2022/08/29 04:25:23;;;;;;;11.27;2.50;;;15.20;99.90;;;;;;4191320;28;20183;-87
2022/08/29 04:27:24;;;;;;;7.68;2.70;;;15.20;99.90;;;;;;4191973;28;20292;-88
2022/08/29 04:29:25;;;;;;;9.10;2.72;;;15.10;99.90;;;;;;4205181;28;20190;-88
2022/08/29 04:31:26;;;;;;;7.50;2.28;;;15.10;99.90;;;;;;4176919;28;20180;-89
2022/08/29 04:33:26;;;;;;;10.48;2.80;;;15.10;99.90;;;;;;4175531;28;20679;-92
2022/08/29 04:35:27;;;;;;;13.23;2.90;;;15.10;99.90;;;;;;4192962;28;20163;-89
2022/08/29 04:37:28;;;;;;;10.45;2.67;;;15.00;99.90;;;;;;4193011;28;20639;-88
2022/08/29 04:39:29;;;;;;;8.63;2.55;;;14.90;99.90;;;;;;4191987;28;20188;-90
2022/08/29 04:41:30;;;;;;;7.97;2.38;;;14.80;99.90;;;;;;4177783;28;20173;-89
2022/08/29 04:43:31;;;;;;;9.23;2.90;;;14.80;99.90;;;;;;4206993;28;20178;-88
2022/08/29 04:45:32;;;;;;;5.53;2.30;;;14.80;99.90;;;;;;4190236;28;20642;-88
2022/08/29 04:47:35;;;;;;;14.95;3.25;;;14.80;99.90;;;;;;4193974;28;20675;-88
2022/08/29 04:49:36;;;;;;;9.52;2.65;;;14.80;99.90;;;;;;4177721;28;20196;-89
2022/08/29 04:51:37;;;;;;;10.82;2.70;;;14.90;99.90;;;;;;4192505;28;20170;-87
2022/08/29 04:53:37;;;;;;;6.15;2.42;;;14.90;99.90;;;;;;4178453;28;20188;-89
2022/08/29 04:55:38;;;;;;;7.25;2.78;;;15.00;99.90;;;;;;4177268;28;20235;-90
2022/08/29 04:57:43;;;;;;;8.43;2.42;;;15.10;99.90;;;;;;4194272;28;20187;-92
2022/08/29 04:59:44;;;;;;;13.43;2.60;;;15.20;99.90;;;;;;4176398;28;20229;-89
2022/08/29 05:01:45;;;;;;;5.03;3.08;;;15.20;99.90;;;;;;4210088;28;20175;-89
2022/08/29 05:03:46;;;;;;;9.48;2.58;;;15.20;99.90;;;;;;4173353;28;20184;-88
2022/08/29 05:05:57;;;;;;;8.73;2.78;;;15.20;99.90;;;;;;4193683;28;20163;-89
2022/08/29 05:07:57;;;;;;;15.38;2.63;;;15.10;99.90;;;;;;4194144;28;20233;-90
2022/08/29 05:10:12;;;;;;;7.72;2.50;;;15.10;99.90;;;;;;4194528;28;20254;-88
2022/08/29 05:12:13;;;;;;;10.45;3.20;;;15.00;99.90;;;;;;4193693;28;20218;-88
2022/08/29 05:14:13;;;;;;;9.25;2.45;;;15.00;99.90;;;;;;4190124;28;20175;-87
2022/08/29 05:16:15;;;;;;;8.30;2.63;;;15.00;99.90;;;;;;4192648;28;20225;-88
2022/08/29 05:18:17;;;;;;;13.23;2.78;;;14.90;99.90;;;;;;4190092;28;20278;-88
2022/08/29 05:20:18;;;;;;;12.63;2.80;;;14.80;99.90;;;;;;4176236;28;20196;-89
2022/08/29 05:22:20;;;;;;;11.77;2.90;;;14.80;99.90;;;;;;4194110;28;20179;-88
2022/08/29 05:24:21;;;;;;;9.25;2.83;;;14.80;99.90;;;;;;4175425;28;20180;-88
2022/08/29 05:26:22;;;;;;;8.57;3.08;;;14.80;99.90;;;;;;4171783;28;20195;-89
2022/08/29 05:28:23;;;;;;;10.75;3.58;;;14.80;99.90;;;;;;4194476;28;20182;-88
2022/08/29 05:30:27;;;;;;;14.23;3.42;;;14.80;99.90;;;;;;4178407;28;20187;-88
2022/08/29 05:32:27;;;;;;;7.82;2.95;;;14.80;99.90;;;;;;4175903;28;20176;-86
2022/08/29 05:34:28;;;;;;;7.13;2.97;;;14.90;99.90;;;;;;4189645;28;20227;-87
2022/08/29 05:36:29;;;;;;;9.10;2.63;;;14.80;99.90;;;;;;4194684;28;20180;-89
2022/08/29 05:38:29;;;;;;;9.52;3.10;;;14.80;99.90;;;;;;4173906;28;20171;-88
2022/08/29 05:40:30;;;;;;;5.70;2.75;;;14.70;99.90;;;;;;4187673;28;20254;-89
2022/08/29 05:42:31;;;;;;;9.80;3.00;;;14.50;99.90;;;;;;4176415;28;20180;-88
2022/08/29 05:44:33;;;;;;;12.33;2.97;;;14.50;99.90;;;;;;4189819;28;20179;-89
2022/08/29 05:46:34;;;;;;;10.80;3.20;;;14.50;99.90;;;;;;4174671;28;20215;-87
2022/08/29 05:48:35;;;;;;;10.27;2.50;;;14.60;99.90;;;;;;4173132;28;20225;-88
2022/08/29 05:50:46;;;;;;;9.80;2.60;;;14.60;99.90;;;;;;4188091;28;20163;-89
2022/08/29 05:52:47;;;;;;;12.90;3.53;;;14.60;99.90;;;;;;4173789;28;20265;-90
2022/08/29 05:54:48;;;;;;;10.07;2.88;;;14.70;99.90;;;;;;4188784;28;20164;-88
2022/08/29 05:56:49;;;;;;;7.50;3.05;;;14.80;99.90;;;;;;4176741;28;20164;-87
2022/08/29 05:58:50;;;;;;;10.52;2.88;;;14.90;99.90;;;;;;4192707;28;20191;-88
2022/08/29 06:00:51;;;;;;;11.07;3.05;;;14.90;99.90;;;;;;4174489;28;20606;-88
2022/08/29 06:02:53;;;;;;;7.75;2.78;;;15.00;99.90;;;;;;4174928;28;20157;-88
2022/08/29 06:04:54;;;;;;;11.50;3.42;;;15.00;99.90;;;;;;4173150;28;20156;-88
2022/08/29 06:06:55;;;;;;;5.00;2.72;;;15.10;99.90;;;;;;4191675;28;20222;-88
2022/08/29 06:08:57;;;;;;;8.45;2.97;;;15.20;99.90;;;;;;4172617;28;20187;-88
2022/08/29 06:10:58;;;;;;;7.43;2.72;;;15.20;99.90;;;;;;4191130;28;20167;-91
2022/08/29 06:12:58;;;;;;;7.70;2.67;;;15.30;99.90;;;;;;4171674;28;20176;-87
2022/08/29 06:14:59;;;;;;;10.48;2.67;;;15.30;99.90;;;;;;4174410;28;20665;-89
2022/08/29 06:17:00;;;;;;;7.47;2.95;;;15.30;99.90;;;;;;4194656;28;20206;-93
2022/08/29 06:19:01;;;;;;;8.73;2.85;;;15.30;99.90;;;;;;4172955;28;20311;-91
2022/08/29 06:21:05;;;;;;;10.80;3.03;;;15.30;99.90;;;;;;4174586;28;20192;-88
2022/08/29 06:23:06;;;;;;;7.90;2.83;;;15.40;99.90;;;;;;4173681;28;20187;-88
2022/08/29 06:25:08;;;;;;;10.10;2.40;;;15.40;99.90;;;;;;4190912;28;20184;-89
2022/08/29 06:27:08;;;;;;;5.63;2.60;;;15.40;99.90;;;;;;4188755;28;20187;-88
2022/08/29 06:29:14;;;;;;;9.80;2.75;;;15.50;99.90;;;;;;4171348;28;20204;-89
2022/08/29 06:31:23;;;;;;;5.70;2.40;;;15.60;99.90;;;;;;4174972;28;20172;-90
2022/08/29 06:33:24;;;;;;;8.27;2.88;;;15.70;99.90;;;;;;4188619;28;20187;-88
2022/08/29 06:35:28;;;;;;;8.02;2.35;;;15.60;99.90;;;;;;4172280;28;20195;-88
2022/08/29 06:37:28;;;;;;;11.20;2.80;;;15.60;99.90;;;;;;4190682;28;20620;-89
2022/08/29 06:39:29;;;;;;;8.63;2.78;;;15.70;99.90;;;;;;4171428;28;20286;-90
2022/08/29 06:41:30;;;;;;;14.50;2.97;;;15.70;99.90;;;;;;4175563;28;20184;-88
2022/08/29 06:43:33;;;;;;;9.68;3.00;;;15.70;99.90;;;;;;4188388;28;20210;-88
2022/08/29 06:45:39;;;;;;;8.60;2.95;;;15.70;99.90;;;;;;4194089;28;20179;-88
2022/08/29 06:47:40;;;;;;;10.57;2.90;;;15.60;99.90;;;;;;4191390;28;20311;-91
2022/08/29 06:49:40;;;;;;;7.47;2.65;;;15.70;99.90;;;;;;4172699;28;20692;-90
2022/08/29 06:51:47;;;;;;;7.43;2.33;;;15.70;99.90;;;;;;4190736;28;20183;-88
2022/08/29 06:53:49;;;;;;;8.48;2.63;;;15.80;99.90;;;;;;4185575;28;20175;-93
2022/08/29 06:55:53;;;;;;;6.38;2.40;;;15.90;99.90;;;;;;4171709;28;20148;-90
2022/08/29 06:57:54;;;;;;;8.07;2.40;;;16.00;99.90;;;;;;4188361;28;20179;-88
2022/08/29 06:59:55;;;;;;;12.50;2.83;;;16.10;99.90;;;;;;4191529;28;20198;-89
2022/08/29 07:01:55;;;;;;;9.90;2.58;;;16.30;99.90;;;;;;4190788;28;20151;-89
2022/08/29 07:03:57;;;;;;;13.23;2.72;;;16.50;99.90;;;;;;4189186;28;20168;-89
2022/08/29 07:05:58;;;;;;;10.35;2.75;;;16.60;99.90;;;;;;4188497;28;20174;-89
2022/08/29 07:07:58;;;;;;;9.05;2.47;;;16.80;99.90;;;;;;4177845;28;20196;-89
2022/08/29 07:10:00;;;;;;;8.07;2.58;;;16.80;99.90;;;;;;4173925;28;20218;-87
2022/08/29 07:12:00;;;;;;;5.97;2.33;;;17.00;99.90;;;;;;4190350;28;20175;-89
2022/08/29 07:14:04;;;;;;;9.60;2.55;;;17.20;99.90;;;;;;4187614;28;20183;-88
2022/08/29 07:16:15;;;;;;;9.93;2.95;;;17.20;99.90;;;;;;4176215;28;20199;-91
2022/08/29 07:18:16;;;;;;;6.25;2.22;;;17.30;99.90;;;;;;4172399;28;20211;-89
2022/08/29 07:20:17;;;;;;;8.82;2.25;;;17.30;99.90;;;;;;4192927;28;20202;-91
2022/08/29 07:22:17;;;;;;;6.68;2.20;;;17.20;99.90;;;;;;4191271;28;20172;-89
2022/08/29 07:24:18;;;;;;;7.78;2.65;;;17.20;99.90;;;;;;4176972;28;20172;-89
2022/08/29 07:26:23;;;;;;;7.43;2.08;;;17.20;99.90;;;;;;4173296;28;20580;-89
2022/08/29 07:28:24;;;;;;;8.13;2.38;;;17.20;99.90;;;;;;4192289;28;20194;-90
2022/08/29 07:30:25;;;;;;;8.60;2.47;;;17.10;99.90;;;;;;4173131;28;20192;-89
2022/08/29 07:32:26;;;;;;;12.15;2.47;;;17.10;99.90;;;;;;4173729;28;20232;-89
2022/08/29 07:34:27;;;;;;;8.57;2.22;;;17.20;99.90;;;;;;4191148;28;20156;-91
2022/08/29 07:36:28;;;;;;;11.40;2.80;;;17.20;99.90;;;;;;4193606;28;20171;-89
2022/08/29 07:38:29;;;;;;;6.55;2.35;;;17.30;99.90;;;;;;4174405;28;20248;-88
2022/08/29 07:40:30;;;;;;;8.10;2.70;;;17.50;99.90;;;;;;4189479;28;20195;-89
2022/08/29 07:42:32;;;;;;;13.55;2.17;;;17.60;99.90;;;;;;4176049;28;20190;-87
2022/08/29 07:44:33;;;;;;;7.00;2.08;;;17.70;99.90;;;;;;4177960;28;20660;-87
2022/08/29 07:46:34;;;;;;;8.02;1.98;;;17.70;99.90;;;;;;4189556;28;20172;-88
2022/08/29 07:48:35;;;;;;;10.60;1.88;;;17.80;99.90;;;;;;4175104;28;20191;-92
2022/08/29 07:50:36;;;;;;;7.10;1.88;;;17.70;99.90;;;;;;4175889;28;20200;-89
2022/08/29 07:52:40;;;;;;;6.50;1.90;;;17.80;99.90;;;;;;4188790;28;20167;-88
2022/08/29 07:54:43;;;;;;;5.60;1.83;;;18.00;99.90;;;;;;4190141;28;20175;-94
2022/08/29 07:56:58;;;;;;;7.30;2.08;;;18.40;99.90;;;;;;4191614;28;20218;-90
2022/08/29 07:58:59;;;;;;;9.23;1.90;;;18.80;99.90;;;;;;4192311;28;20191;-90
2022/08/29 08:01:00;;;;;;;7.35;1.80;;;19.10;99.90;;;;;;4177841;28;20200;-88
2022/08/29 08:03:00;;;;;;;8.02;1.63;;;19.40;99.90;;;;;;4196915;28;20163;-90
2022/08/29 08:05:01;;;;;;;6.13;2.00;;;19.70;99.90;;;;;;4178478;28;20182;-91
2022/08/29 08:07:02;;;;;;;6.97;1.60;;;20.10;99.90;;;;;;4184797;22;20201;-89
2022/08/29 08:09:17;;;;;;;11.32;1.90;;;20.30;99.90;;;;;;4143208;28;20224;-90
2022/08/29 08:11:20;;;;;;;8.57;1.98;;;20.00;99.90;;;;;;4143351;28;20183;-89
2022/08/29 08:13:21;;;;;;;8.73;1.80;;;20.00;99.90;;;;;;4140646;28;20181;-89
2022/08/29 08:15:22;;;;;;;12.45;2.00;;;19.70;99.90;;;;;;4156700;28;20593;-90
2022/08/29 08:17:23;;;;;;;6.85;1.73;;;20.10;99.90;;;;;;4161521;28;20238;-88
2022/08/29 08:19:24;;;;;;;7.50;2.00;;;20.50;99.90;;;;;;4139539;28;20554;-89
2022/08/29 08:21:26;;;;;;;11.68;2.17;;;20.70;99.90;;;;;;4129078;28;20174;-90
2022/08/29 08:23:26;;;;;;;7.05;1.50;;;21.00;99.90;;;;;;4141530;28;20182;-88
2022/08/29 08:25:27;;;;;;;6.75;1.48;;;21.10;99.90;;;;;;4129566;28;20249;-91
2022/08/29 08:27:28;;;;;;;11.77;1.80;;;21.10;99.90;;;;;;4124582;28;20229;-93
2022/08/29 08:29:28;;;;;;;7.30;1.60;;;20.90;99.90;;;;;;4141719;28;20198;-88
2022/08/29 08:31:30;;;;;;;5.75;1.45;;;21.10;99.90;;;;;;4142023;28;20157;-89
2022/08/29 08:33:31;;;;;;;4.35;1.35;;;21.20;99.90;;;;;;4140882;28;20212;-90
2022/08/29 08:35:37;;;;;;;9.32;1.65;;;21.40;99.90;;;;;;4140837;28;20150;-89
2022/08/29 08:37:41;;;;;;;7.20;1.70;;;21.50;99.90;;;;;;4143759;28;20222;-90
2022/08/29 08:39:43;;;;;;;6.45;1.55;;;21.30;99.90;;;;;;4143442;28;20299;-94
2022/08/29 08:41:56;;;;;;;7.07;1.80;;;21.20;99.90;;;;;;4155324;28;20255;-94
2022/08/29 08:44:06;;;;;;;6.88;1.80;;;21.10;99.90;;;;;;4138537;28;20181;-89
2022/08/29 08:46:07;;;;;;;5.90;1.60;;;21.40;99.90;;;;;;4140894;28;20212;-89
2022/08/29 08:48:11;;;;;;;5.65;1.67;;;21.40;99.90;;;;;;4126888;28;20194;-90
2022/08/29 08:50:29;;;;;;;5.88;1.77;;;21.40;99.90;;;;;;4124616;28;20198;-94
2022/08/29 08:52:58;;;;;;;6.07;1.90;;;21.80;99.90;;;;;;4143538;28;20201;-90
2022/08/29 08:55:48;;;;;;;40.20;2.90;;;22.30;99.90;;;;;;4120716;28;20185;-90
2022/08/29 08:58:00;;;;;;;6.57;2.20;;;22.40;99.90;;;;;;4139655;28;20169;-91
2022/08/29 09:00:01;;;;;;;3.80;1.67;;;22.40;99.90;;;;;;4139933;28;20352;-94
2022/08/29 09:02:27;;;;;;;7.47;2.25;;;22.20;99.90;;;;;;4139817;28;20653;-92
2022/08/29 09:04:58;;;;;;;9.25;2.13;;;22.50;99.90;;;;;;4159013;28;20293;-89
2022/08/29 09:07:38;;;;;;;4.43;1.60;;;22.50;99.90;;;;;;4111657;28;1191883;-89
2022/08/29 09:09:53;;;;;;;6.05;2.03;;;22.80;99.90;;;;;;4160672;28;20192;-91
2022/08/29 09:12:19;;;;;;;6.25;2.40;;;23.00;99.90;;;;;;4141662;28;21075;-90
2022/08/29 09:14:42;;;;;;;6.75;2.45;;;23.00;99.90;;;;;;4098015;28;20193;-91
2022/08/29 09:16:56;;;;;;;10.10;2.22;;;23.30;99.90;;;;;;4143260;28;20700;-90
2022/08/29 09:19:25;;;;;;;8.88;2.17;;;22.90;99.90;;;;;;4143165;28;20228;-93
2022/08/29 09:21:26;;;;;;;5.80;2.20;;;23.00;99.90;;;;;;4146475;28;20161;-91
2022/08/29 09:23:49;;;;;;;7.60;2.55;;;23.10;99.90;;;;;;4144714;28;20180;-91
2022/08/29 09:25:50;;;;;;;9.93;2.10;;;23.50;99.90;;;;;;4141266;28;20223;-90
2022/08/29 09:27:51;;;;;;;6.15;2.60;;;23.40;99.90;;;;;;4140232;28;20194;-90
2022/08/29 09:30:07;;;;;;;8.68;2.28;;;23.40;99.90;;;;;;4139842;28;20645;-91
2022/08/29 09:32:12;;;;;;;7.53;2.13;;;23.10;99.90;;;;;;4145225;28;20182;-95
2022/08/29 09:34:37;;;;;;;4.93;1.90;;;23.40;99.90;;;;;;4135732;28;20668;-91
2022/08/29 09:36:52;;;;;;;6.45;2.55;;;23.20;99.90;;;;;;4139025;28;20169;-91
2022/08/29 09:39:11;;;;;;;6.50;2.17;;;22.80;99.90;;;;;;4137281;28;20249;-90
2022/08/29 09:41:32;;;;;;;5.65;2.05;;;22.70;99.90;;;;;;4137469;28;20199;-90
2022/08/29 09:43:38;;;;;;;4.97;1.90;;;22.70;99.90;;;;;;4125770;28;20249;-91
2022/08/29 09:45:39;;;;;;;7.43;2.60;;;22.80;99.90;;;;;;4138624;28;20208;-89
2022/08/29 09:47:40;;;;;;;6.13;2.60;;;22.90;99.90;;;;;;4139638;28;20209;-92
2022/08/29 09:50:05;;;;;;;6.05;2.35;;;23.00;99.90;;;;;;4141302;28;20174;-89
2022/08/29 09:52:15;;;;;;;8.93;2.25;;;22.90;99.90;;;;;;4141067;28;20188;-92
2022/08/29 09:54:21;;;;;;;7.63;2.50;;;22.60;99.90;;;;;;4141245;28;20173;-91
2022/08/29 09:56:25;;;;;;;6.20;1.75;;;22.80;99.90;;;;;;4139490;28;20260;-94
2022/08/29 09:58:31;;;;;;;6.93;2.28;;;22.70;99.90;;;;;;4140642;28;20177;-95
2022/08/29 10:00:39;;;;;;;8.80;2.60;;;22.30;99.90;;;;;;4119805;28;20175;-90
2022/08/29 10:02:45;;;;;;;8.32;2.58;;;22.80;99.90;;;;;;4135973;28;20177;-89
2022/08/29 10:05:11;;;;;;;6.60;1.90;;;22.90;99.90;;;;;;4141372;28;20236;-91
2022/08/29 10:07:19;;;;;;;6.90;2.05;;;22.70;99.90;;;;;;4125197;28;20272;-95
2022/08/29 10:09:27;;;;;;;6.28;2.22;;;22.90;99.90;;;;;;4140005;28;20207;-92
2022/08/29 10:11:40;;;;;;;7.60;2.72;;;22.80;99.90;;;;;;4139900;28;20724;-90
2022/08/29 10:14:00;;;;;;;8.02;1.98;;;22.70;99.90;;;;;;4123918;28;20162;-95
2022/08/29 10:16:26;;;;;;;11.30;2.20;;;22.40;99.90;;;;;;4138488;28;20181;-93
2022/08/29 10:18:48;;;;;;;11.18;2.67;;;22.10;99.90;;;;;;4135936;28;20193;-90
2022/08/29 10:21:00;;;;;;;7.32;2.28;;;21.80;99.90;;;;;;4151124;28;20177;-94
2022/08/29 10:23:16;;;;;;;6.97;2.20;;;21.50;99.90;;;;;;4139174;28;20165;-93
2022/08/29 10:25:40;;;;;;;5.28;2.35;;;21.40;99.90;;;;;;4135581;28;20174;-90
2022/08/29 10:28:01;;;;;;;4.55;2.10;;;21.30;99.90;;;;;;4136149;28;20232;-89
2022/08/29 10:30:08;;;;;;;7.53;2.75;;;21.30;99.90;;;;;;4136925;28;20244;-89
2022/08/29 10:32:42;;;;;;;6.50;2.30;;;21.40;99.90;;;;;;4118692;28;20215;-95
2022/08/29 10:35:14;;;;;;;7.35;2.42;;;21.60;99.90;;;;;;4152749;28;20212;-90
2022/08/29 10:37:45;;;;;;;9.35;2.65;;;21.60;99.90;;;;;;4157893;28;20207;-93
2022/08/29 10:40:21;;;;;;;8.73;2.15;;;21.60;99.90;;;;;;4146229;28;20264;-93
2022/08/29 10:42:25;;;;;;;8.80;2.50;;;21.70;99.90;;;;;;4142360;28;20204;-92
2022/08/29 10:44:37;;;;;;;6.68;2.72;;;21.90;99.90;;;;;;4139423;28;20257;-95
2022/08/29 10:47:11;;;;;;;6.20;2.72;;;21.90;99.90;;;;;;4138669;28;20173;-93
2022/08/29 10:49:29;;;;;;;6.90;2.45;;;21.80;99.90;;;;;;4143607;28;20205;-93
2022/08/29 10:52:05;;;;;;;8.00;2.08;;;21.70;99.90;;;;;;4142410;28;20503;-91
2022/08/29 10:54:24;;;;;;;9.02;2.20;;;22.00;99.90;;;;;;4110996;28;20189;-92
2022/08/29 10:56:38;;;;;;;11.27;2.08;;;22.00;99.90;;;;;;4139848;28;20169;-89